createdAt,value
2018-03-23T00:01:51.644Z,6.79
2018-03-23T00:04:17.315Z,6.75
2018-03-23T00:06:42.965Z,6.75
2018-03-23T00:09:08.645Z,6.79
2018-03-23T00:11:34.297Z,6.75
2018-03-23T00:13:59.953Z,6.75
2018-03-23T00:16:25.621Z,6.78
2018-03-23T00:18:51.284Z,6.73
2018-03-23T00:21:16.951Z,6.81
2018-03-23T00:23:42.636Z,6.81
2018-03-23T00:26:08.280Z,6.84
2018-03-23T00:28:34.252Z,6.82
2018-03-23T00:30:59.948Z,6.79
2018-03-23T00:33:25.606Z,6.78
2018-03-23T00:35:51.251Z,6.78
2018-03-23T00:38:16.920Z,6.74
2018-03-23T00:40:42.588Z,6.70
2018-03-23T00:43:08.267Z,6.70
2018-03-23T00:45:33.923Z,6.67
2018-03-23T00:47:59.569Z,6.65
2018-03-23T00:50:25.224Z,6.60
2018-03-23T00:52:51.204Z,6.58
2018-03-23T00:55:16.855Z,6.59
2018-03-23T00:57:42.528Z,6.59
2018-03-23T01:00:08.186Z,6.62
2018-03-23T01:02:33.843Z,6.48
2018-03-23T01:04:59.517Z,6.58
2018-03-23T01:07:25.167Z,6.55
2018-03-23T01:09:50.826Z,6.46
2018-03-23T01:12:16.505Z,6.39
2018-03-23T01:14:42.176Z,6.37
2018-03-23T01:17:07.837Z,6.30
2018-03-23T01:19:33.512Z,6.31
2018-03-23T01:21:59.481Z,6.39
2018-03-23T01:24:25.145Z,6.39
2018-03-23T01:26:50.824Z,6.40
2018-03-23T01:29:16.488Z,6.42
2018-03-23T01:31:42.132Z,6.41
2018-03-23T01:34:07.811Z,6.40
2018-03-23T01:36:33.479Z,6.36
2018-03-23T01:38:59.244Z,6.35
2018-03-23T01:41:24.924Z,6.34
2018-03-23T01:43:50.585Z,6.31
2018-03-23T01:46:16.232Z,6.37
2018-03-23T01:48:41.907Z,6.26
2018-03-23T01:51:07.590Z,6.39
2018-03-23T01:53:39.400Z,6.37
2018-03-23T01:56:05.068Z,6.25
2018-03-23T01:58:31.169Z,6.28
2018-03-23T02:00:56.842Z,6.22
2018-03-23T02:03:22.508Z,6.20
2018-03-23T02:05:48.172Z,6.25
2018-03-23T02:08:13.833Z,6.26
2018-03-23T02:10:39.506Z,6.25
2018-03-23T02:13:05.172Z,6.28
2018-03-23T02:15:30.836Z,6.28
2018-03-23T02:17:56.479Z,6.25
2018-03-23T02:20:22.149Z,6.24
2018-03-23T02:22:47.808Z,6.25
2018-03-23T02:25:14.034Z,6.10
2018-03-23T02:27:39.809Z,6.00
2018-03-23T02:30:05.590Z,5.92
2018-03-23T02:32:31.345Z,5.89
2018-03-23T02:34:57.103Z,5.91
2018-03-23T02:37:22.845Z,5.88
2018-03-23T02:39:48.598Z,6.02
2018-03-23T02:42:14.368Z,6.05
2018-03-23T02:44:40.130Z,6.08
2018-03-23T02:47:05.793Z,6.10
2018-03-23T02:49:31.484Z,6.12
2018-03-23T02:51:57.156Z,6.07
2018-03-23T02:54:22.841Z,6.06
2018-03-23T02:56:49.020Z,6.05
2018-03-23T02:59:14.669Z,6.11
2018-03-23T03:01:40.348Z,6.17
2018-03-23T03:04:06.024Z,6.21
2018-03-23T03:06:31.717Z,6.13
2018-03-23T03:08:57.388Z,6.22
2018-03-23T03:11:23.067Z,6.29
2018-03-23T03:13:48.715Z,6.33
2018-03-23T03:16:15.257Z,6.36
2018-03-23T03:18:40.920Z,6.39
2018-03-23T03:21:06.582Z,6.44
2018-03-23T03:23:32.664Z,6.47
2018-03-23T03:25:58.340Z,6.44
2018-03-23T03:28:23.995Z,6.41
2018-03-23T03:30:49.682Z,6.39
2018-03-23T03:33:15.348Z,6.26
2018-03-23T03:35:41.057Z,6.33
2018-03-23T03:38:06.733Z,6.34
2018-03-23T03:40:32.666Z,6.36
2018-03-23T03:42:58.323Z,6.42
2018-03-23T03:45:23.990Z,6.47
2018-03-23T03:47:49.674Z,6.49
2018-03-23T03:50:15.334Z,6.54
2018-03-23T03:52:40.980Z,6.55
2018-03-23T03:55:06.645Z,6.58
2018-03-23T03:57:32.385Z,6.63
2018-03-23T03:59:58.511Z,6.64
2018-03-23T04:02:24.277Z,6.60
2018-03-23T04:04:49.933Z,6.60
2018-03-23T04:07:15.607Z,6.61
2018-03-23T04:09:41.261Z,6.59
2018-03-23T04:12:06.925Z,6.60
2018-03-23T04:14:32.604Z,6.62
2018-03-23T04:16:58.261Z,6.64
2018-03-23T04:19:23.911Z,6.65
2018-03-23T04:21:49.589Z,6.62
2018-03-23T04:24:15.577Z,6.60
2018-03-23T04:26:41.224Z,6.62
2018-03-23T04:29:06.885Z,6.52
2018-03-23T04:31:32.540Z,6.61
2018-03-23T04:33:58.206Z,6.59
2018-03-23T04:36:23.879Z,6.57
2018-03-23T04:38:49.536Z,6.55
2018-03-23T04:41:15.196Z,6.48
2018-03-23T04:43:40.868Z,6.46
2018-03-23T04:46:06.520Z,6.40
2018-03-23T04:48:32.160Z,6.40
2018-03-23T04:50:57.836Z,6.41
2018-03-23T04:53:23.510Z,6.42
2018-03-23T04:55:49.489Z,6.43
2018-03-23T04:58:15.155Z,6.40
2018-03-23T05:00:40.802Z,6.42
2018-03-23T05:03:06.464Z,6.45
2018-03-23T05:05:32.140Z,6.40
2018-03-23T05:07:57.804Z,6.39
2018-03-23T05:10:23.456Z,6.35
2018-03-23T05:12:49.104Z,6.35
2018-03-23T05:15:14.760Z,6.36
2018-03-23T05:17:40.442Z,6.40
2018-03-23T05:20:06.109Z,6.35
2018-03-23T05:22:31.752Z,6.42
2018-03-23T05:24:57.441Z,6.42
2018-03-23T05:27:23.496Z,6.45
2018-03-23T05:29:49.164Z,6.47
2018-03-23T05:32:14.832Z,6.51
2018-03-23T05:34:40.467Z,6.52
2018-03-23T05:37:06.124Z,6.52
2018-03-23T05:39:31.782Z,6.47
2018-03-23T05:41:57.448Z,6.46
2018-03-23T05:44:23.096Z,6.48
2018-03-23T05:46:48.751Z,6.50
2018-03-23T05:49:14.404Z,6.47
2018-03-23T05:51:40.070Z,6.46
2018-03-23T05:54:05.719Z,6.47
2018-03-23T05:56:31.679Z,6.46
2018-03-23T05:58:57.395Z,6.44
2018-03-23T06:01:23.040Z,6.48
2018-03-23T06:03:48.683Z,6.53
2018-03-23T06:06:14.382Z,6.56
2018-03-23T06:08:40.038Z,6.61
2018-03-23T06:11:05.696Z,6.70
2018-03-23T06:13:31.377Z,6.76
2018-03-23T06:15:57.024Z,6.78
2018-03-23T06:18:22.681Z,6.89
2018-03-23T06:20:48.384Z,6.94
2018-03-23T06:23:14.031Z,7.01
2018-03-23T06:25:40.096Z,7.05
2018-03-23T06:28:05.817Z,7.09
2018-03-23T06:30:31.489Z,7.17
2018-03-23T06:32:57.158Z,7.24
2018-03-23T06:35:22.845Z,7.28
2018-03-23T06:37:48.517Z,7.28
2018-03-23T06:40:14.175Z,7.30
2018-03-23T06:42:39.848Z,7.33
2018-03-23T06:45:05.512Z,7.33
2018-03-23T06:47:31.164Z,7.33
2018-03-23T06:49:56.844Z,7.37
2018-03-23T06:52:22.492Z,7.40
2018-03-23T06:54:48.574Z,7.44
2018-03-23T06:57:14.241Z,7.51
2018-03-23T06:59:39.905Z,7.59
2018-03-23T07:02:05.580Z,7.60
2018-03-23T07:04:31.252Z,7.64
2018-03-23T07:06:56.891Z,7.68
2018-03-23T07:09:22.553Z,7.73
2018-03-23T07:11:48.230Z,7.78
2018-03-23T07:14:13.876Z,7.83
2018-03-23T07:16:39.532Z,7.87
2018-03-23T07:19:05.197Z,7.87
2018-03-23T07:21:30.848Z,7.90
2018-03-23T07:23:56.499Z,7.94
2018-03-23T07:26:22.573Z,8.00
2018-03-23T07:28:48.225Z,8.06
2018-03-23T07:31:13.880Z,8.13
2018-03-23T07:33:39.540Z,8.16
2018-03-23T07:36:05.208Z,8.23
2018-03-23T07:38:30.862Z,8.29
2018-03-23T07:40:56.541Z,8.41
2018-03-23T07:43:22.489Z,8.49
2018-03-23T07:45:48.148Z,8.55
2018-03-23T07:53:41.844Z,8.66
2018-03-23T07:56:07.500Z,8.73
2018-03-23T07:58:33.168Z,8.77
2018-03-23T08:00:58.848Z,8.74
2018-03-23T08:03:25.121Z,8.73
2018-03-23T08:05:50.804Z,8.73
2018-03-23T08:08:16.496Z,8.78
2018-03-23T08:10:42.163Z,8.86
2018-03-23T08:13:07.846Z,8.92
2018-03-23T08:15:33.525Z,8.99
2018-03-23T08:17:59.205Z,9.15
2018-03-23T08:20:24.876Z,9.26
2018-03-23T08:22:50.605Z,9.25
2018-03-23T08:25:16.252Z,9.25
2018-03-23T08:27:41.899Z,9.34
2018-03-23T08:30:07.992Z,9.40
2018-03-23T08:32:33.664Z,9.37
2018-03-23T08:34:59.326Z,9.31
2018-03-23T08:37:25.001Z,9.27
2018-03-23T08:39:50.676Z,9.18
2018-03-23T08:42:16.347Z,9.23
2018-03-23T08:44:42.048Z,9.25
2018-03-23T08:47:07.721Z,9.39
2018-03-23T08:49:33.411Z,9.53
2018-03-23T08:51:59.544Z,9.71
2018-03-23T08:54:25.244Z,9.86
2018-03-23T08:56:50.953Z,10.00
2018-03-23T08:59:16.657Z,10.13
2018-03-23T09:01:42.329Z,10.26
2018-03-23T09:04:07.997Z,10.28
2018-03-23T09:06:33.661Z,10.24
2018-03-23T09:08:59.770Z,10.17
2018-03-23T09:11:25.438Z,10.07
2018-03-23T09:13:51.132Z,9.94
2018-03-23T09:16:16.789Z,9.89
2018-03-23T09:18:42.464Z,9.91
2018-03-23T09:21:08.136Z,10.02
2018-03-23T09:23:33.796Z,10.11
2018-03-23T09:25:59.492Z,10.20
2018-03-23T09:28:25.175Z,10.25
2018-03-23T09:30:51.081Z,10.19
2018-03-23T09:33:17.044Z,10.11
2018-03-23T09:35:42.708Z,10.11
2018-03-23T09:38:08.363Z,10.14
2018-03-23T09:40:34.049Z,10.27
2018-03-23T09:42:59.704Z,10.41
2018-03-23T09:45:25.353Z,10.44
2018-03-23T09:47:51.033Z,10.52
2018-03-23T09:50:16.684Z,10.54
2018-03-23T09:52:42.382Z,10.74
2018-03-23T09:55:08.069Z,10.91
2018-03-23T09:57:34.181Z,11.07
2018-03-23T09:59:59.845Z,11.30
2018-03-23T10:02:25.541Z,11.49
2018-03-23T10:04:51.209Z,11.58
2018-03-23T10:07:16.889Z,11.58
2018-03-23T10:09:42.576Z,11.57
2018-03-23T10:12:08.232Z,11.48
2018-03-23T10:14:33.889Z,11.38
2018-03-23T10:16:59.580Z,11.28
2018-03-23T10:19:25.249Z,11.09
2018-03-23T10:21:50.900Z,10.90
2018-03-23T10:24:16.978Z,10.87
2018-03-23T10:26:42.653Z,10.77
2018-03-23T10:29:08.307Z,10.70
2018-03-23T10:31:34.027Z,10.72
2018-03-23T10:33:59.712Z,10.73
2018-03-23T10:36:25.384Z,10.81
2018-03-23T10:38:51.082Z,10.90
2018-03-23T10:41:16.976Z,10.91
2018-03-23T10:43:42.650Z,10.96
2018-03-23T10:46:08.346Z,11.00
2018-03-23T10:48:34.024Z,11.18
2018-03-23T10:50:59.697Z,11.41
2018-03-23T10:53:25.458Z,11.66
2018-03-23T10:55:51.077Z,11.85
2018-03-23T10:58:16.769Z,12.07
2018-03-23T11:00:48.884Z,12.25
2018-03-23T11:03:14.564Z,12.24
2018-03-23T11:05:40.236Z,12.23
2018-03-23T11:08:05.908Z,12.38
2018-03-23T11:10:31.567Z,12.45
2018-03-23T11:12:57.228Z,12.47
2018-03-23T11:15:22.997Z,12.54
2018-03-23T11:17:48.765Z,12.58
2018-03-23T11:20:14.518Z,12.55
2018-03-23T11:22:40.293Z,12.50
2018-03-23T11:25:05.972Z,12.49
2018-03-23T11:27:31.641Z,12.27
2018-03-23T11:29:57.355Z,12.08
2018-03-23T11:32:23.480Z,11.92
2018-03-23T11:34:49.152Z,11.88
2018-03-23T11:37:14.812Z,11.88
2018-03-23T11:39:40.512Z,12.05
2018-03-23T11:42:06.180Z,12.23
2018-03-23T11:44:31.864Z,12.38
2018-03-23T11:46:57.630Z,12.39
2018-03-23T11:49:23.320Z,12.42
2018-03-23T11:51:48.996Z,12.48
2018-03-23T11:54:14.650Z,12.63
2018-03-23T11:56:40.337Z,12.75
2018-03-23T11:59:05.993Z,12.72
2018-03-23T12:01:32.052Z,12.61
2018-03-23T12:03:57.740Z,12.55
2018-03-23T12:06:23.408Z,12.41
2018-03-23T12:08:49.061Z,12.50
2018-03-23T12:11:14.728Z,12.65
2018-03-23T12:13:40.393Z,12.76
2018-03-23T12:16:06.061Z,12.95
2018-03-23T12:18:31.828Z,13.09
2018-03-23T12:20:57.477Z,13.10
2018-03-23T12:23:23.156Z,13.18
2018-03-23T12:25:48.909Z,13.22
2018-03-23T12:28:15.041Z,13.15
2018-03-23T12:30:40.715Z,13.28
2018-03-23T12:33:06.364Z,13.36
2018-03-23T12:35:32.041Z,13.47
2018-03-23T12:37:57.737Z,13.42
2018-03-23T12:40:23.400Z,13.33
2018-03-23T12:42:49.056Z,13.35
2018-03-23T12:45:14.744Z,13.37
2018-03-23T12:47:40.420Z,13.29
2018-03-23T12:50:06.129Z,13.13
2018-03-23T12:52:32.189Z,13.05
2018-03-23T12:54:57.874Z,13.01
2018-03-23T12:57:23.549Z,13.01
2018-03-23T12:59:49.236Z,12.96
2018-03-23T13:02:14.891Z,12.89
2018-03-23T13:04:40.552Z,12.82
2018-03-23T13:07:06.196Z,12.74
2018-03-23T13:09:32.044Z,12.68
2018-03-23T13:11:57.717Z,12.66
2018-03-23T13:14:23.369Z,12.58
2018-03-23T13:16:49.032Z,12.51
2018-03-23T13:19:14.705Z,12.39
2018-03-23T13:21:40.361Z,12.38
2018-03-23T13:24:06.063Z,12.33
2018-03-23T13:26:31.997Z,12.31
2018-03-23T13:28:57.649Z,12.35
2018-03-23T13:31:23.300Z,12.36
2018-03-23T13:33:48.980Z,12.34
2018-03-23T13:36:14.656Z,12.31
2018-03-23T13:38:40.313Z,12.24
2018-03-23T13:41:06.008Z,12.26
2018-03-23T13:43:31.691Z,12.27
2018-03-23T13:45:57.386Z,12.31
2018-03-23T13:48:23.045Z,12.29
2018-03-23T13:50:48.692Z,12.29
2018-03-23T13:53:14.383Z,12.28
2018-03-23T13:55:40.076Z,12.29
2018-03-23T13:58:05.764Z,12.33
2018-03-23T14:00:38.358Z,12.38
2018-03-23T14:03:04.040Z,12.43
2018-03-23T14:05:29.696Z,12.43
2018-03-23T14:07:55.356Z,12.42
2018-03-23T14:10:21.008Z,12.46
2018-03-23T14:12:46.676Z,12.39
2018-03-23T14:15:12.348Z,12.33
2018-03-23T14:17:38.068Z,12.23
2018-03-23T14:20:03.711Z,12.18
2018-03-23T14:22:29.372Z,12.18
2018-03-23T14:24:55.036Z,12.19
2018-03-23T14:27:21.382Z,12.16
2018-03-23T14:29:47.153Z,12.18
2018-03-23T14:32:12.933Z,12.16
2018-03-23T14:34:38.698Z,12.11
2018-03-23T14:37:04.361Z,12.14
2018-03-23T14:39:30.028Z,12.17
2018-03-23T14:41:55.709Z,12.28
2018-03-23T14:44:21.614Z,12.28
2018-03-23T14:46:47.384Z,12.29
2018-03-23T14:49:13.189Z,12.27
2018-03-23T14:51:38.965Z,12.31
2018-03-23T14:54:04.740Z,12.39
2018-03-23T14:56:30.514Z,12.45
2018-03-23T14:59:02.406Z,12.47
2018-03-23T15:01:28.680Z,12.46
2018-03-23T15:03:54.433Z,12.49
2018-03-23T15:06:20.208Z,12.52
2018-03-23T15:08:45.968Z,12.51
2018-03-23T15:11:11.739Z,12.49
2018-03-23T15:13:37.486Z,12.51
2018-03-23T15:16:03.291Z,12.50
2018-03-23T15:18:29.056Z,12.47
2018-03-23T15:20:54.830Z,12.48
2018-03-23T15:23:20.597Z,12.51
2018-03-23T15:25:46.378Z,12.35
2018-03-23T15:28:12.498Z,12.26
2018-03-23T15:30:38.285Z,12.26
2018-03-23T15:33:04.074Z,12.26
2018-03-23T15:35:29.842Z,12.23
2018-03-23T15:37:55.586Z,12.22
2018-03-23T15:40:21.344Z,12.19
2018-03-23T15:42:47.107Z,12.15
2018-03-23T15:45:12.849Z,12.15
2018-03-23T15:47:38.615Z,12.11
2018-03-23T15:50:04.425Z,12.07
2018-03-23T15:52:30.165Z,12.09
2018-03-23T15:54:56.401Z,12.09
2018-03-23T15:57:22.182Z,12.06
2018-03-23T15:59:47.935Z,12.03
2018-03-23T16:02:13.678Z,12.02
2018-03-23T16:04:39.436Z,11.93
2018-03-23T16:07:05.192Z,11.91
2018-03-23T16:09:30.991Z,11.89
2018-03-23T16:11:56.757Z,11.88
2018-03-23T16:14:22.493Z,11.84
2018-03-23T16:16:48.294Z,11.81
2018-03-23T16:19:14.110Z,11.74
2018-03-23T16:21:39.845Z,11.73
2018-03-23T16:24:06.018Z,11.72
2018-03-23T16:26:31.769Z,11.67
2018-03-23T16:28:57.537Z,11.63
2018-03-23T16:31:23.309Z,11.60
2018-03-23T16:33:49.113Z,11.61
2018-03-23T16:36:14.891Z,11.61
2018-03-23T16:38:40.649Z,11.57
2018-03-23T16:41:06.391Z,11.47
2018-03-23T16:43:32.158Z,11.45
2018-03-23T16:45:57.909Z,11.42
2018-03-23T16:48:23.672Z,11.38
2018-03-23T16:50:50.065Z,11.39
2018-03-23T16:53:15.844Z,11.39
2018-03-23T16:55:41.629Z,11.38
2018-03-23T16:58:07.421Z,11.32
2018-03-23T17:00:33.190Z,11.32
2018-03-23T17:02:58.953Z,11.31
2018-03-23T17:05:24.736Z,11.30
2018-03-23T17:07:50.533Z,11.26
2018-03-23T17:10:16.288Z,11.24
2018-03-23T17:12:42.075Z,11.21
2018-03-23T17:15:07.842Z,11.18
2018-03-23T17:17:33.640Z,11.18
2018-03-23T17:19:59.425Z,11.13
2018-03-23T17:22:25.614Z,11.11
2018-03-23T17:24:51.373Z,11.10
2018-03-23T17:27:17.129Z,11.07
2018-03-23T17:29:42.882Z,11.05
2018-03-23T17:32:08.642Z,11.03
2018-03-23T17:34:34.410Z,11.02
2018-03-23T17:37:00.183Z,11.02
2018-03-23T17:39:25.929Z,11.00
2018-03-23T17:41:51.697Z,10.96
2018-03-23T17:44:17.461Z,10.95
2018-03-23T17:46:43.220Z,10.96
2018-03-23T17:49:08.985Z,10.92
2018-03-23T17:51:35.383Z,10.88
2018-03-23T17:54:01.136Z,10.86
2018-03-23T17:56:26.901Z,10.82
2018-03-23T17:58:52.656Z,10.79
2018-03-23T18:01:18.421Z,10.81
2018-03-23T18:03:44.189Z,10.84
2018-03-23T18:06:09.953Z,10.85
2018-03-23T18:08:36.216Z,10.84
2018-03-23T18:11:01.982Z,10.81
2018-03-23T18:13:27.758Z,10.78
2018-03-23T18:15:53.517Z,10.77
2018-03-23T18:18:19.288Z,10.74
2018-03-23T18:20:45.056Z,10.79
2018-03-23T18:23:10.853Z,10.80
2018-03-23T18:25:36.691Z,10.79
2018-03-23T18:28:02.782Z,10.80
2018-03-23T18:30:28.579Z,10.61
2018-03-23T18:32:54.341Z,10.77
2018-03-23T18:35:20.093Z,10.73
2018-03-23T18:37:45.824Z,10.71
2018-03-23T18:40:11.584Z,10.69
2018-03-23T18:42:37.342Z,10.66
2018-03-23T18:45:03.096Z,10.62
2018-03-23T18:47:28.860Z,10.63
2018-03-23T18:49:54.619Z,10.62
2018-03-23T18:52:20.763Z,10.64
2018-03-23T18:54:46.558Z,10.51
2018-03-23T18:57:12.318Z,10.61
2018-03-23T18:59:38.060Z,10.60
2018-03-23T19:02:03.861Z,10.58
2018-03-23T19:04:29.617Z,10.52
2018-03-23T19:06:55.363Z,10.52
2018-03-23T19:09:21.122Z,10.51
2018-03-23T19:11:46.865Z,10.50
2018-03-23T19:14:12.643Z,10.49
2018-03-23T19:16:38.437Z,10.50
2018-03-23T19:19:04.201Z,10.46
2018-03-23T19:21:30.577Z,10.44
2018-03-23T19:23:56.353Z,10.42
2018-03-23T19:26:22.129Z,10.39
2018-03-23T19:28:48.011Z,10.38
2018-03-23T19:31:13.714Z,10.29
2018-03-23T19:33:39.468Z,10.38
2018-03-23T19:36:05.256Z,10.35
2018-03-23T19:38:31.017Z,10.35
2018-03-23T19:40:56.783Z,10.33
2018-03-23T19:43:22.591Z,10.33
2018-03-23T19:45:48.373Z,10.33
2018-03-23T19:48:14.127Z,10.31
2018-03-23T19:50:39.930Z,10.30
2018-03-23T19:53:06.096Z,10.30
2018-03-23T19:55:31.857Z,10.28
2018-03-23T19:57:57.629Z,10.28
2018-03-23T20:00:23.385Z,10.28
2018-03-23T20:02:49.196Z,10.27
2018-03-23T20:05:14.957Z,10.28
2018-03-23T20:07:40.737Z,10.28
2018-03-23T20:10:06.499Z,10.26
2018-03-23T20:12:32.249Z,10.23
2018-03-23T20:14:57.996Z,10.19
2018-03-23T20:17:29.987Z,10.12
2018-03-23T20:19:55.781Z,10.09
2018-03-23T20:22:21.529Z,10.08
2018-03-23T20:24:47.617Z,10.10
2018-03-23T20:27:19.404Z,10.10
2018-03-23T20:29:45.185Z,10.07
2018-03-23T20:32:17.016Z,10.04
2018-03-23T20:34:42.781Z,10.01
2018-03-23T20:37:08.553Z,9.98
2018-03-23T20:39:34.306Z,10.00
2018-03-23T20:42:00.113Z,9.97
2018-03-23T20:44:25.856Z,9.90
2018-03-23T20:46:51.605Z,10.02
2018-03-23T20:49:17.405Z,10.00
2018-03-23T20:51:43.597Z,9.97
2018-03-23T20:54:09.372Z,9.94
2018-03-23T20:56:35.142Z,9.84
2018-03-23T20:59:00.906Z,9.87
2018-03-23T21:01:26.697Z,9.84
2018-03-23T21:03:52.486Z,9.81
2018-03-23T21:06:18.227Z,9.75
2018-03-23T21:08:43.980Z,9.76
2018-03-23T21:11:09.763Z,9.57
2018-03-23T21:13:35.541Z,9.74
2018-03-23T21:16:01.299Z,9.73
2018-03-23T21:18:27.070Z,9.73
2018-03-23T21:20:52.820Z,9.73
2018-03-23T21:23:19.041Z,9.71
2018-03-23T21:25:44.801Z,9.70
2018-03-23T21:28:10.564Z,9.69
2018-03-23T21:30:36.337Z,9.65
2018-03-23T21:33:02.171Z,9.65
2018-03-23T21:35:27.933Z,9.68
2018-03-23T21:37:53.792Z,9.71
2018-03-23T21:40:19.553Z,9.68
2018-03-23T21:42:45.331Z,9.66
2018-03-23T21:45:11.093Z,9.63
2018-03-23T21:47:36.877Z,9.61
2018-03-23T21:50:02.630Z,9.62
2018-03-23T21:52:28.403Z,9.62
2018-03-23T21:54:54.488Z,9.65
2018-03-23T21:57:20.248Z,9.64
2018-03-23T21:59:45.989Z,9.64
2018-03-23T22:02:11.782Z,9.65
2018-03-23T22:04:37.542Z,9.64
2018-03-23T22:07:03.315Z,9.64
2018-03-23T22:09:29.090Z,9.63
2018-03-23T22:11:54.854Z,9.61
2018-03-23T22:14:20.621Z,9.64
2018-03-23T22:16:46.420Z,9.66
2018-03-23T22:19:12.191Z,9.65
2018-03-23T22:21:37.960Z,9.64
2018-03-23T22:24:04.094Z,9.66
2018-03-23T22:26:29.868Z,9.68
2018-03-23T22:28:55.671Z,9.68
2018-03-23T22:31:21.438Z,9.66
2018-03-23T22:33:47.196Z,9.65
2018-03-23T22:36:12.952Z,9.61
2018-03-23T22:38:38.722Z,9.42
2018-03-23T22:41:04.481Z,9.60
2018-03-23T22:43:30.253Z,9.60
2018-03-23T22:45:56.012Z,9.60
2018-03-23T22:48:21.790Z,9.61
2018-03-23T22:50:47.994Z,9.62
2018-03-23T22:53:13.761Z,9.56
2018-03-23T22:55:39.532Z,9.55
2018-03-23T22:58:05.301Z,9.54
2018-03-23T23:00:31.072Z,9.55
2018-03-23T23:02:56.833Z,9.57
2018-03-23T23:05:22.601Z,9.56
2018-03-23T23:07:48.372Z,9.58
2018-03-23T23:10:14.184Z,9.58
2018-03-23T23:12:39.930Z,9.54
2018-03-23T23:15:05.668Z,9.53
2018-03-23T23:17:31.455Z,9.55
2018-03-23T23:19:57.837Z,9.55
2018-03-23T23:22:23.621Z,9.55
2018-03-23T23:24:49.374Z,9.53
2018-03-23T23:27:15.149Z,9.53
2018-03-23T23:29:40.954Z,9.53
2018-03-23T23:32:06.727Z,9.44
2018-03-23T23:34:32.474Z,9.56
2018-03-23T23:36:58.221Z,9.52
2018-03-23T23:39:23.965Z,9.48
2018-03-23T23:41:49.726Z,9.48
2018-03-23T23:44:15.483Z,9.50
2018-03-23T23:46:41.242Z,9.49
2018-03-23T23:49:07.013Z,9.49
2018-03-23T23:51:33.146Z,9.49
2018-03-23T23:53:58.904Z,9.47
2018-03-23T23:56:24.680Z,9.43
2018-03-23T23:58:50.437Z,9.39
